• Join FlightAware (Why Join?)
  • Login
  • US Flag 
03:23PM EST


 

Airport Tracker/Info


-or-


 

Live Flight TrackerFlight Track Log ✈ N421TK ✈ 29-Jul-2013 ✈ KDKX - KCXO

Flight Track Log - Related Links

Times and Time Zones

All times are in EDT time to prevent confusion due to time zone crossing. See the N421TK flight status page for this flight to view local times or setup timezone preferences in your user account.

Time Position Orientation Groundspeed Altitude Reporting Facility
EDT Latitude Longitude Course Direction KTS MPH feet Rate Location/Type
08:10AM 35.9289 -83.9644 238° Southwest 130 150 3,700  Level Atlanta Center
08:11AM 35.9122 -83.9953 236° Southwest 117 135 4,900 1,140 Climbing Atlanta Center
08:12AM 35.8914 -84.0336 236° Southwest 126 145 6,000 1,080 Climbing Atlanta Center
08:13AM 35.8789 -84.0694 247° West 118 136 7,100 1,020 Climbing Atlanta Center
08:14AM 35.7835 -84.2053 234° Southwest  Level FlightAware Approximate
08:14AM 35.8747 -84.1081 262° West 118 136 8,100  Level Atlanta Center
08:15AM 35.7534 -84.2599 238° Southwest  Level FlightAware Approximate
08:15AM 35.8539 -84.1411 232° Southwest 118 136 9,000  Level Atlanta Center
08:16AM 35.8372 -84.1769 240° Southwest 118 136 10,000 900 Climbing Atlanta Center
08:17AM 35.8183 -84.2128 237° Southwest 123 142 10,900 900 Climbing Atlanta Center
08:18AM 35.7972 -84.2514 236° Southwest 123 142 11,800 900 Climbing Atlanta Center
08:19AM 35.7786 -84.2894 239° Southwest 128 147 12,700 900 Climbing Atlanta Center
08:20AM 35.7575 -84.3281 236° Southwest 128 147 13,600 900 Climbing Atlanta Center
08:21AM 35.7386 -84.3661 239° Southwest 128 147 14,500 900 Climbing Atlanta Center
08:22AM 35.7178 -84.4069 238° Southwest 133 153 15,400 720 Climbing Atlanta Center
08:23AM 35.6967 -84.4478 238° Southwest 133 153 16,000 300 Climbing Atlanta Center
08:24AM 35.6758 -84.4964 242° Southwest 144 166 16,000  Level Atlanta Center
08:25AM 35.6483 -84.5472 236° Southwest 166 191 16,000  Level Atlanta Center
08:26AM 35.6211 -84.5983 237° Southwest 177 204 16,000  Level Atlanta Center
08:27AM 35.5958 -84.6517 240° Southwest 187 215 16,000  Level Atlanta Center
08:28AM 35.5664 -84.7050 236° Southwest 187 215 16,000  Level Atlanta Center
08:29AM 35.5389 -84.7583 238° Southwest 187 215 16,000  Level Atlanta Center
08:30AM 35.5114 -84.8119 238° Southwest 187 215 16,000  Level Atlanta Center
08:31AM 35.4839 -84.8650 238° Southwest 187 215 16,000  Level Atlanta Center
08:32AM 35.4564 -84.9183 238° Southwest 192 221 16,000  Level Atlanta Center
08:33AM 35.4269 -84.9717 236° Southwest 192 221 16,000  Level Atlanta Center
08:34AM 35.4014 -85.0222 238° Southwest 192 221 16,000  Level Atlanta Center
08:35AM 35.3514 -85.1183 237° Southwest 189 217 16,000  Level Memphis Center
08:36AM 35.3222 -85.1708 236° Southwest 189 217 16,000  Level Memphis Center
08:37AM 35.2953 -85.2233 238° Southwest 189 217 16,000  Level Memphis Center
08:38AM 35.2683 -85.2758 238° Southwest 189 217 16,000  Level Memphis Center
08:39AM 35.2411 -85.3283 238° Southwest 189 217 16,000  Level Memphis Center
08:40AM 35.2139 -85.3783 236° Southwest 189 217 16,000  Level Memphis Center
08:41AM 35.1869 -85.4308 238° Southwest 189 217 16,000  Level Memphis Center
08:42AM 35.1597 -85.4833 238° Southwest 189 217 16,000  Level Memphis Center
08:43AM 35.1325 -85.5306 235° Southwest 189 217 16,000  Level Memphis Center
08:44AM 35.1072 -85.5828 239° Southwest 189 217 16,000  Level Memphis Center
08:45AM 35.0800 -85.6325 236° Southwest 189 217 16,000  Level Memphis Center
08:46AM 35.0528 -85.6847 238° Southwest 189 217 16,000  Level Memphis Center
08:47AM 35.0275 -85.7342 238° Southwest 189 217 16,000  Level Memphis Center
08:48AM 35.0003 -85.7864 238° Southwest 189 217 16,000  Level Memphis Center
08:49AM 34.9728 -85.8361 236° Southwest 189 217 16,000  Level Memphis Center
08:50AM 34.9456 -85.8908 239° Southwest 189 217 16,000  Level Memphis Center
08:51AM 34.9183 -85.9403 236° Southwest 189 217 16,000  Level Memphis Center
08:52AM 34.8889 -85.9925 236° Southwest 189 217 16,000  Level Memphis Center
08:53AM 34.8636 -86.0444 239° Southwest 189 217 16,000  Level Memphis Center
08:54AM 34.8339 -86.0942 234° Southwest 189 217 16,000  Level Memphis Center
08:55AM 34.8106 -86.1433 240° Southwest 189 217 16,000  Level Memphis Center
08:56AM 34.7808 -86.1928 234° Southwest 189 217 16,000  Level Memphis Center
08:57AM 34.7556 -86.2419 238° Southwest 189 217 16,000  Level Memphis Center
08:58AM 34.7258 -86.2942 235° Southwest 189 217 16,000  Level Memphis Center
08:59AM 34.7003 -86.3433 238° Southwest 189 217 16,000  Level Memphis Center
09:00AM 34.6728 -86.3950 237° Southwest 189 217 16,000  Level Memphis Center
09:01AM 34.6453 -86.4442 236° Southwest 189 217 16,000  Level Memphis Center
09:02AM 34.6175 -86.4936 236° Southwest 189 217 16,000  Level Memphis Center
09:03AM 34.5900 -86.5453 237° Southwest 184 212 16,000  Level Memphis Center
09:04AM 34.5558 -86.5922 229° Southwest 184 212 16,100  Climbing Memphis Center
09:05AM 34.5131 -86.6242 212° Southwest 184 212 16,000 -60 Descending Memphis Center
09:06AM 34.4661 -86.6592 212° Southwest 197 227 16,000  Level Memphis Center
09:07AM 34.4189 -86.6914 209° Southwest 197 227 16,000  Level Memphis Center
09:08AM 34.3742 -86.7261 213° Southwest 202 232 16,000  Level Memphis Center
09:09AM 34.3250 -86.7608 210° Southwest 202 232 16,000  Level Memphis Center
09:11AM 34.2300 -86.8325 212° Southwest 205 236 16,000  Level Atlanta Center
09:12AM 34.1833 -86.8664 211° Southwest 205 236 16,100  Climbing Atlanta Center
09:13AM 34.1367 -86.8997 211° Southwest 205 236 16,000  Descending Atlanta Center
09:14AM 34.0900 -86.9358 213° Southwest 205 236 16,100  Climbing Atlanta Center
09:15AM 34.0431 -86.9719 213° Southwest 205 236 16,000 -60 Descending Atlanta Center
09:16AM 33.9944 -87.0028 208° Southwest 205 236 16,000  Level Atlanta Center
09:17AM 33.9497 -87.0389 214° Southwest 205 236 16,000  Level Atlanta Center
09:18AM 33.9008 -87.0747 211° Southwest 205 236 16,100  Climbing Atlanta Center
09:19AM 33.8522 -87.1056 208° Southwest 205 236 16,000 -60 Descending Atlanta Center
09:20AM 33.8053 -87.1411 212° Southwest 205 236 16,000  Level Atlanta Center
09:21AM 33.7583 -87.1769 212° Southwest 205 236 16,000  Level Atlanta Center
09:22AM 33.7117 -87.2103 211° Southwest 205 236 16,100  Climbing Atlanta Center
09:23AM 33.6628 -87.2458 211° Southwest 205 236 16,100  Level Atlanta Center
09:24AM 33.6181 -87.2792 212° Southwest 205 236 16,100 -60 Level Atlanta Center
09:25AM 33.5692 -87.3122 209° Southwest 205 236 16,000 -60 Descending Atlanta Center
09:26AM 33.5222 -87.3478 212° Southwest 205 236 16,000  Level Atlanta Center
09:27AM 33.4778 -87.3786 210° Southwest 205 236 16,100  Climbing Atlanta Center
09:28AM 33.4308 -87.4142 212° Southwest 199 229 16,100  Level Atlanta Center
09:29AM 33.3839 -87.4469 210° Southwest 199 229 16,100  Level Atlanta Center
09:30AM 33.3372 -87.4800 211° Southwest 199 229 16,100  Level Atlanta Center
09:31AM 33.2903 -87.5156 212° Southwest 199 229 16,100 -60 Level Atlanta Center
09:32AM 33.2475 -87.5511 215° Southwest 199 229 16,000  Descending Atlanta Center
09:33AM 33.2067 -87.5917 220° Southwest 199 229 16,100  Climbing Atlanta Center
09:34AM 33.1656 -87.6369 223° Southwest 199 229 16,100  Level Atlanta Center
09:35AM 33.1247 -87.6775 220° Southwest 199 229 16,100  Level Atlanta Center
09:36AM 33.0839 -87.7203 221° Southwest 199 229 16,100  Level Atlanta Center
09:37AM 33.0578 -87.7497 223° Southwest 198 228 16,100  Level Memphis Center
09:38AM 33.0169 -87.7906 220° Southwest 198 228 16,100  Level Memphis Center
09:39AM 32.9739 -87.8314 219° Southwest 198 228 16,100  Level Memphis Center
09:40AM 32.9353 -87.8747 223° Southwest 198 228 16,100  Level Memphis Center
09:41AM 32.8983 -87.9178 224° Southwest 198 228 16,100  Level Memphis Center
09:42AM 32.8556 -87.9608 220° Southwest 198 228 16,100  Level Memphis Center
09:43AM 32.8144 -88.0042 222° Southwest 198 228 16,100  Level Memphis Center
09:44AM 32.7756 -88.0472 223° Southwest 198 228 16,100  Level Memphis Center
09:45AM 32.7367 -88.0878 221° Southwest 198 228 16,100  Level Memphis Center
09:46AM 32.6958 -88.1281 220° Southwest 198 228 16,100  Level Memphis Center
09:47AM 32.6547 -88.1711 221° Southwest 198 228 16,100 -60 Level Memphis Center
09:48AM 32.6136 -88.2142 221° Southwest 198 228 16,000  Descending Memphis Center
09:49AM 32.5728 -88.2569 221° Southwest 198 228 16,100  Climbing Memphis Center
09:50AM 32.5317 -88.2972 220° Southwest 198 228 16,100  Level Memphis Center
09:51AM 32.4906 -88.3403 221° Southwest 198 228 16,100  Level Memphis Center
09:52AM 32.4494 -88.3806 220° Southwest 203 234 16,100  Level Memphis Center
09:53AM 32.4086 -88.4281 224° Southwest 203 234 16,100 -60 Level Memphis Center
09:54AM 32.3672 -88.4683 219° Southwest 203 234 16,000  Descending Memphis Center
09:55AM 32.3517 -88.5278 253° West 197 227 16,100  Climbing Memphis Center
09:56AM 32.3378 -88.5844 254° West 186 214 16,100  Level Memphis Center
09:57AM 32.3239 -88.6439 255° West 191 220 16,100  Level Memphis Center
09:58AM 32.3081 -88.7056 253° West 191 220 16,100  Level Memphis Center
09:59AM 32.2942 -88.7622 254° West 191 220 16,100  Level Memphis Center
10:00AM 32.2783 -88.8242 253° West 191 220 16,100  Level Memphis Center
10:01AM 32.2622 -88.8808 251° West 191 220 16,100  Level Memphis Center
10:02AM 32.2464 -88.9475 254° West 196 226 16,100  Level Memphis Center
10:03AM 32.2283 -89.0092 251° West 196 226 16,100  Level Memphis Center
10:04AM 32.2142 -89.0658 254° West 190 219 16,100  Level Memphis Center
10:05AM 32.1981 -89.1275 253° West 190 219 16,100  Level Memphis Center
10:06AM 32.1819 -89.1889 253° West 190 219 16,100  Level Memphis Center
10:07AM 32.1658 -89.2456 251° West 190 219 16,100  Level Memphis Center
10:08AM 32.1519 -89.3097 256° West 190 219 16,100  Level Memphis Center
10:09AM 32.1336 -89.3664 249° West 190 219 16,100  Level Memphis Center
10:10AM 32.1172 -89.4278 253° West 190 219 16,100  Level Memphis Center
10:11AM 32.1011 -89.4892 253° West 190 219 16,100  Level Memphis Center
10:12AM 32.0869 -89.5483 254° West 190 219 16,100  Level Memphis Center
10:13AM 32.0683 -89.6097 250° West 190 219 16,100  Level Memphis Center
10:14AM 32.0519 -89.6686 252° West 190 219 16,100  Level Memphis Center
10:15AM 32.0378 -89.7300 255° West 190 219 16,100  Level Memphis Center
10:16AM 32.0192 -89.7889 250° West 190 219 16,100  Level Memphis Center
10:17AM 32.0050 -89.8528 255° West 195 224 16,100  Level Memphis Center
10:18AM 31.9883 -89.9092 251° West 195 224 16,100  Level Memphis Center
10:19AM 31.9719 -89.9706 253° West 195 224 16,100  Level Memphis Center
10:20AM 31.9553 -90.0292 251° West 190 219 16,100  Level Memphis Center
10:21AM 31.9408 -90.0881 254° West 190 219 16,100  Level Memphis Center
10:22AM 31.9244 -90.1469 252° West 190 219 16,100  Level Memphis Center
10:23AM 31.9156 -90.1772 251° West 196 226 16,100  Level Houston Center
10:24AM 31.9000 -90.2353 252° West 189 217 16,100  Level Houston Center
10:25AM 31.8778 -90.3086 250° West 195 224 16,100  Level Houston Center
10:26AM 31.8617 -90.3681 252° West 194 223 16,100  Level Houston Center
10:27AM 31.8464 -90.4267 253° West 191 220 16,100  Level Houston Center
10:28AM 31.8303 -90.4847 252° West 189 217 16,100  Level Houston Center
10:29AM 31.8131 -90.5450 251° West 192 221 16,100  Level Houston Center
10:30AM 31.7969 -90.6039 252° West 191 220 16,100  Level Houston Center
10:31AM 31.7786 -90.6764 253° West 192 221 16,100  Level Houston Center
10:32AM 31.7622 -90.7347 252° West 191 220 16,100  Level Houston Center
10:33AM 31.7453 -90.7950 252° West 193 222 16,100  Level Houston Center
10:34AM 31.7281 -90.8561 252° West 195 224 16,100  Level Houston Center
10:35AM 31.7111 -90.9158 252° West 194 223 16,100  Level Houston Center
10:36AM 31.6942 -90.9747 251° West 192 221 16,100  Level Houston Center
10:37AM 31.6747 -91.0453 252° West 191 220 16,100  Level Houston Center
10:38AM 31.6594 -91.1047 253° West 191 220 16,100  Level Houston Center
10:39AM 31.6431 -91.1625 252° West 188 216 16,100  Level Houston Center
10:40AM 31.6281 -91.2208 253° West 188 216 16,100  Level Houston Center
10:41AM 31.6106 -91.2806 251° West 191 220 16,100  Level Houston Center
10:42AM 31.5903 -91.3506 251° West 190 219 16,100  Level Houston Center
10:43AM 31.5739 -91.4094 252° West 189 217 16,100  Level Houston Center
10:44AM 31.5558 -91.4683 250° West 192 221 16,100  Level Houston Center
10:45AM 31.5392 -91.5286 252° West 194 223 16,100  Level Houston Center
10:46AM 31.5217 -91.5875 251° West 193 222 16,100  Level Houston Center
10:48AM 31.5056 -91.6481 253° West 195 224 16,100  Level Houston Center
10:49AM 31.4853 -91.7194 252° West 192 221 16,100  Level Houston Center
10:50AM 31.4675 -91.7789 251° West 193 222 16,100  Level Houston Center
10:51AM 31.4503 -91.8383 251° West 194 223 16,100  Level Houston Center
10:52AM 31.4331 -91.8983 251° West 195 224 16,100  Level Houston Center
10:53AM 31.4153 -91.9578 251° West 193 222 16,100  Level Houston Center
10:54AM 31.3981 -92.0175 251° West 194 223 16,100  Level Houston Center
10:55AM 31.3775 -92.0900 252° West 196 226 16,100  Level Houston Center
10:56AM 31.3597 -92.1492 251° West 194 223 16,100  Level Houston Center
10:57AM 31.3425 -92.2092 251° West 195 224 16,100  Level Houston Center
10:58AM 31.3244 -92.2689 251° West 195 224 16,100  Level Houston Center
10:59AM 31.3067 -92.3267 250° West 190 219 16,100  Level Houston Center
11:00AM 31.2892 -92.3869 251° West 193 222 16,100  Level Houston Center
11:01AM 31.2678 -92.4583 251° West 193 222 16,100  Level Houston Center
11:02AM 31.2492 -92.5197 250° West 194 223 16,100  Level Houston Center
11:03AM 31.2317 -92.5800 251° West 195 224 16,100  Level Houston Center
11:04AM 31.2139 -92.6400 251° West 193 222 16,100  Level Houston Center
11:05AM 31.1964 -92.6986 251° West 190 219 16,100  Level Houston Center
11:06AM 31.1792 -92.7589 252° West 193 222 16,100  Level Houston Center
11:07AM 31.1606 -92.8183 250° West 195 224 16,100  Level Houston Center
11:08AM 31.1433 -92.8775 251° West 193 222 16,100  Level Houston Center
11:09AM 31.1219 -92.9503 251° West 195 224 16,100  Level Houston Center
11:10AM 31.1033 -93.0106 250° West 196 226 16,100  Level Houston Center
11:11AM 31.0850 -93.0717 251° West 198 228 16,100  Level Houston Center
11:12AM 31.0664 -93.1322 250° West 199 229 16,100  Level Houston Center
11:13AM 31.0486 -93.1936 251° West 200 230 16,100  Level Houston Center
11:14AM 31.0300 -93.2531 250° West 198 228 16,100 -60 Level Houston Center
11:15AM 31.0078 -93.3244 250° West 196 226 16,000 -60 Descending Houston Center
11:16AM 30.9903 -93.3842 251° West 195 224 16,000  Level Houston Center
11:18AM 30.9719 -93.4444 250° West 197 227 16,000  Level Houston Center
11:19AM 30.9539 -93.5036 250° West 196 226 16,000  Level Houston Center
11:20AM 30.9356 -93.5633 250° West 197 227 16,000  Level Houston Center
11:21AM 30.9150 -93.6350 252° West 194 223 16,000  Level Houston Center
11:22AM 30.8967 -93.6950 250° West 196 226 16,000  Level Houston Center
11:23AM 30.8772 -93.7533 249° West 195 224 16,000  Level Houston Center
11:24AM 30.8594 -93.8133 251° West 196 226 16,000  Level Houston Center
11:25AM 30.8411 -93.8722 250° West 194 223 16,000  Level Houston Center
11:26AM 30.8233 -93.9319 251° West 196 226 16,000 -660 Level Houston Center
11:27AM 30.8000 -94.0089 251° West 212 244 14,700 -1,260 Descending Houston Center
11:28AM 30.7814 -94.0731 251° West 208 239 13,500 -1,200 Descending Houston Center
11:29AM 30.7622 -94.1325 249° West 199 229 12,300 -1,140 Descending Houston Center
11:30AM 30.7442 -94.1919 251° West 195 224 11,200 -1,080 Descending Houston Center
11:31AM 30.7264 -94.2492 250° West 189 217 10,100 -1,140 Descending Houston Center
11:32AM 30.7211 -94.3086 264° West 197 227 8,900 -1,200 Descending Houston Center
11:33AM 30.7239 -94.3675 273° West 185 213 7,700 -1,260 Descending Houston Center
11:34AM 30.7197 -94.4319 266° West 178 205 6,400 -1,140 Descending Houston Center
11:35AM 30.7167 -94.4947 267° West 180 207 5,400 -840 Descending Houston Center
11:36AM 30.7147 -94.5300 266° West 188 216 5,100 -300 Descending Houston Center
11:37AM 30.7056 -94.5869 259° West 173 199 5,000 -300 Descending Houston Center
11:37AM 30.7031 -94.6094 263° West 179 206 4,700 -900 Descending Houston Center
11:38AM 30.6983 -94.6439 261° West 171 197 4,100 -1,020 Descending Houston Center
11:38AM 30.6961 -94.6667 264° West 177 204 3,700 -720 Descending Houston Center
11:39AM 30.6847 -94.7242 257° West 179 206 3,000 -360 Descending Houston Center
11:40AM 30.6661 -94.7886 251° West 178 205 3,000  Level Houston Center
11:41AM 30.6528 -94.8361 252° West 169 194 3,000  Level Houston Center
11:42AM 30.6394 -94.8844 252° West 160 184 3,000  Level Houston Center
11:43AM 30.6272 -94.9319 253° West 156 180 3,000  Level Houston Center
11:44AM 30.6136 -94.9803 252° West 156 180 3,000  Level Houston Center
11:45AM 30.6006 -95.0289 253° West 157 181 3,000  Level Houston Center
11:46AM 30.5858 -95.0878 254° West 158 182 3,000  Level Houston Center
11:48AM 30.5739 -95.1364 254° West 157 181 3,000  Level Houston Center
11:49AM 30.5611 -95.1836 253° West 156 180 3,000  Level Houston Center
11:50AM 30.5489 -95.2342 254° West 160 184 3,000 -180 Level Houston Center
11:51AM 30.5364 -95.2839 254° West 161 185 2,700 -480 Descending Houston Center
11:52AM 30.5242 -95.3378 255° West 167 192 2,100 -300 Descending Houston Center
11:53AM 30.5183 -95.3942 263° West 173 199 2,100  Level Houston Center
11:54AM 30.5111 -95.4489 261° West 160 184 2,100  Level Houston Center
11:55AM 30.5028 -95.4969 259° West 147 169 2,100  Level Houston Center
11:56AM 30.4728 -95.5114 203° Southwest 147 169 2,100  Level Houston Center
11:57AM 30.4383 -95.4819 144° Southeast 121 139 2,100 -180 Level Houston Center
11:58AM 30.4136 -95.4583 141° Southeast 124 143 1,800 -540 Descending Houston Center
11:59AM 30.4069 -95.3872 96° East 166 191 1,100 -420 Descending Houston Center
12:00PM 30.3850 -95.3786 161° South 160 184 1,000 -120 Descending Houston Center